Athens, Vermont
Current Conditions -  °F | °C
As of 9:54 PM on Wednesday 26 Nov 2014 (Local Time) from KVSF Reporting Station
Light Snow Light Snow  
Wind Chill: 22°   Ceiling: 2200
Heat Index: 31°   Visibility: 4mi
Dew Point: 27°   Wind: 10mph
Humidity: 85%   Direction: 20°NNE
Pressure: 29.85"   Gusts: NA
Location:  43.2811°N, 72.6352°W
Report Text: KVSF 270254Z AUTO 02009KT 4SM -SN BR BKN022 OVC036 M01/M03 A2985 RMK AO2 UPB28E31SNE28B31 SLP116 P0000 60008 T10061028 56031
Loading
Personal Weather Stations






























Interactive Weather Map New forecast layout! Learn more

10-Day Weather Forecast

Advertisements
Track Severe Weather on mobile